Terminal Aerodrome Forecast
Issued by NWS Louisville, KY

Home | Current Version | Previous Version | Text Only | Print | Product List | Glossary On
Versions: 1 2 3 4 5 6 7 8 9 10 11 12
000
FTUS43 KLMK 070500
TAFLEX
TAF
KLEX 070523Z 0706/0806 VRB03KT P6SM FEW150
     FM071000 VRB03KT 6SM BR FEW250
     FM071400 22004KT P6SM SCT060=

USA.gov is the U.S. government's official web portal to all federal, state and local government web resources and services.